sensor_id;sensor_type;location;lat;lon;timestamp;P1;durP1;ratioP1;P2;durP2;ratioP2
44036;SDS011;62488;-37.670;-63.532;2023-04-06T00:00:45;7.07;;;3.03;;
44036;SDS011;62488;-37.670;-63.532;2023-04-06T00:03:13;6.28;;;2.10;;
44036;SDS011;62488;-37.670;-63.532;2023-04-06T00:05:41;19.70;;;3.72;;
44036;SDS011;62488;-37.670;-63.532;2023-04-06T00:08:08;12.50;;;2.75;;
44036;SDS011;62488;-37.670;-63.532;2023-04-06T00:10:35;15.80;;;3.17;;
44036;SDS011;62488;-37.670;-63.532;2023-04-06T00:13:02;5.82;;;2.70;;
44036;SDS011;62488;-37.670;-63.532;2023-04-06T00:15:31;17.60;;;3.00;;
44036;SDS011;62488;-37.670;-63.532;2023-04-06T00:17:58;14.07;;;2.60;;
44036;SDS011;62488;-37.670;-63.532;2023-04-06T00:20:28;23.48;;;3.20;;
44036;SDS011;62488;-37.670;-63.532;2023-04-06T00:22:56;12.02;;;3.35;;
44036;SDS011;62488;-37.670;-63.532;2023-04-06T00:25:23;11.15;;;2.70;;
44036;SDS011;62488;-37.670;-63.532;2023-04-06T00:27:50;6.10;;;2.10;;
44036;SDS011;62488;-37.670;-63.532;2023-04-06T00:30:17;9.70;;;2.20;;
44036;SDS011;62488;-37.670;-63.532;2023-04-06T00:32:45;7.30;;;2.75;;
44036;SDS011;62488;-37.670;-63.532;2023-04-06T00:35:12;18.20;;;5.22;;
44036;SDS011;62488;-37.670;-63.532;2023-04-06T00:37:40;15.95;;;3.20;;
44036;SDS011;62488;-37.670;-63.532;2023-04-06T00:40:07;11.43;;;3.20;;
44036;SDS011;62488;-37.670;-63.532;2023-04-06T00:42:35;11.18;;;2.08;;
44036;SDS011;62488;-37.670;-63.532;2023-04-06T00:45:02;12.85;;;2.65;;
44036;SDS011;62488;-37.670;-63.532;2023-04-06T00:47:30;15.48;;;2.58;;
44036;SDS011;62488;-37.670;-63.532;2023-04-06T00:49:57;14.35;;;2.83;;
44036;SDS011;62488;-37.670;-63.532;2023-04-06T00:52:24;21.42;;;3.65;;
44036;SDS011;62488;-37.670;-63.532;2023-04-06T00:54:51;11.55;;;2.42;;
44036;SDS011;62488;-37.670;-63.532;2023-04-06T00:57:18;5.30;;;2.25;;
44036;SDS011;62488;-37.670;-63.532;2023-04-06T00:59:45;13.73;;;2.50;;
44036;SDS011;62488;-37.670;-63.532;2023-04-06T01:02:13;6.57;;;2.38;;
44036;SDS011;62488;-37.670;-63.532;2023-04-06T01:04:40;6.97;;;1.95;;
44036;SDS011;62488;-37.670;-63.532;2023-04-06T01:07:07;10.93;;;1.92;;
44036;SDS011;62488;-37.670;-63.532;2023-04-06T01:09:35;6.82;;;2.63;;
44036;SDS011;62488;-37.670;-63.532;2023-04-06T01:12:02;10.00;;;2.60;;
44036;SDS011;62488;-37.670;-63.532;2023-04-06T01:14:29;6.80;;;2.30;;
44036;SDS011;62488;-37.670;-63.532;2023-04-06T01:16:57;15.27;;;2.13;;
44036;SDS011;62488;-37.670;-63.532;2023-04-06T01:19:26;11.38;;;2.28;;
44036;SDS011;62488;-37.670;-63.532;2023-04-06T01:21:53;15.98;;;2.50;;
44036;SDS011;62488;-37.670;-63.532;2023-04-06T01:24:21;9.50;;;1.92;;
44036;SDS011;62488;-37.670;-63.532;2023-04-06T01:26:48;11.43;;;2.38;;
44036;SDS011;62488;-37.670;-63.532;2023-04-06T01:29:15;11.82;;;1.85;;
44036;SDS011;62488;-37.670;-63.532;2023-04-06T01:31:42;7.40;;;1.88;;
44036;SDS011;62488;-37.670;-63.532;2023-04-06T01:34:09;6.20;;;1.83;;
44036;SDS011;62488;-37.670;-63.532;2023-04-06T01:36:36;9.60;;;2.03;;
44036;SDS011;62488;-37.670;-63.532;2023-04-06T01:39:04;7.63;;;1.83;;
44036;SDS011;62488;-37.670;-63.532;2023-04-06T01:41:31;9.75;;;2.33;;
44036;SDS011;62488;-37.670;-63.532;2023-04-06T01:43:58;6.28;;;2.00;;
44036;SDS011;62488;-37.670;-63.532;2023-04-06T01:46:25;11.23;;;2.63;;
44036;SDS011;62488;-37.670;-63.532;2023-04-06T01:48:52;5.65;;;1.48;;
44036;SDS011;62488;-37.670;-63.532;2023-04-06T01:51:19;11.75;;;2.05;;
44036;SDS011;62488;-37.670;-63.532;2023-04-06T01:53:47;20.27;;;2.35;;
44036;SDS011;62488;-37.670;-63.532;2023-04-06T01:56:14;11.25;;;2.00;;
44036;SDS011;62488;-37.670;-63.532;2023-04-06T01:58:41;12.63;;;2.67;;
44036;SDS011;62488;-37.670;-63.532;2023-04-06T02:01:08;7.47;;;1.70;;
44036;SDS011;62488;-37.670;-63.532;2023-04-06T02:03:35;5.00;;;1.73;;
44036;SDS011;62488;-37.670;-63.532;2023-04-06T02:06:02;6.80;;;1.70;;
44036;SDS011;62488;-37.670;-63.532;2023-04-06T02:08:30;10.25;;;1.98;;
44036;SDS011;62488;-37.670;-63.532;2023-04-06T02:10:57;8.13;;;1.50;;
44036;SDS011;62488;-37.670;-63.532;2023-04-06T02:13:24;3.47;;;1.30;;
44036;SDS011;62488;-37.670;-63.532;2023-04-06T02:15:51;14.60;;;2.60;;
44036;SDS011;62488;-37.670;-63.532;2023-04-06T02:18:18;5.78;;;2.20;;
44036;SDS011;62488;-37.670;-63.532;2023-04-06T02:20:45;9.57;;;1.65;;
44036;SDS011;62488;-37.670;-63.532;2023-04-06T02:23:12;6.47;;;1.65;;
44036;SDS011;62488;-37.670;-63.532;2023-04-06T02:25:40;11.35;;;2.22;;
44036;SDS011;62488;-37.670;-63.532;2023-04-06T02:28:07;4.72;;;1.75;;
44036;SDS011;62488;-37.670;-63.532;2023-04-06T02:30:34;4.88;;;2.20;;
44036;SDS011;62488;-37.670;-63.532;2023-04-06T02:33:01;20.48;;;2.50;;
44036;SDS011;62488;-37.670;-63.532;2023-04-06T02:35:29;7.80;;;2.17;;
44036;SDS011;62488;-37.670;-63.532;2023-04-06T02:37:57;2.78;;;1.20;;
44036;SDS011;62488;-37.670;-63.532;2023-04-06T02:40:24;11.68;;;3.20;;
44036;SDS011;62488;-37.670;-63.532;2023-04-06T02:42:51;7.03;;;2.20;;
44036;SDS011;62488;-37.670;-63.532;2023-04-06T02:45:18;10.10;;;2.75;;
44036;SDS011;62488;-37.670;-63.532;2023-04-06T02:47:45;5.28;;;1.67;;
44036;SDS011;62488;-37.670;-63.532;2023-04-06T02:50:12;6.60;;;2.20;;
44036;SDS011;62488;-37.670;-63.532;2023-04-06T02:52:40;10.82;;;1.95;;
44036;SDS011;62488;-37.670;-63.532;2023-04-06T02:55:08;9.57;;;3.03;;
44036;SDS011;62488;-37.670;-63.532;2023-04-06T02:57:35;9.07;;;2.42;;
44036;SDS011;62488;-37.670;-63.532;2023-04-06T03:00:02;8.40;;;1.95;;
44036;SDS011;62488;-37.670;-63.532;2023-04-06T03:02:30;8.68;;;2.60;;
44036;SDS011;62488;-37.670;-63.532;2023-04-06T03:04:57;10.90;;;3.67;;
44036;SDS011;62488;-37.670;-63.532;2023-04-06T03:07:24;7.35;;;2.00;;
44036;SDS011;62488;-37.670;-63.532;2023-04-06T03:09:51;6.60;;;1.77;;
44036;SDS011;62488;-37.670;-63.532;2023-04-06T03:12:18;7.05;;;2.13;;
44036;SDS011;62488;-37.670;-63.532;2023-04-06T03:14:45;7.38;;;2.65;;
44036;SDS011;62488;-37.670;-63.532;2023-04-06T03:17:12;7.75;;;2.42;;
44036;SDS011;62488;-37.670;-63.532;2023-04-06T03:19:40;4.57;;;1.80;;
44036;SDS011;62488;-37.670;-63.532;2023-04-06T03:22:08;6.75;;;2.30;;
44036;SDS011;62488;-37.670;-63.532;2023-04-06T03:24:35;11.45;;;2.75;;
44036;SDS011;62488;-37.670;-63.532;2023-04-06T03:27:02;10.68;;;2.40;;
44036;SDS011;62488;-37.670;-63.532;2023-04-06T03:29:29;7.30;;;3.00;;
44036;SDS011;62488;-37.670;-63.532;2023-04-06T03:31:57;7.80;;;2.30;;
44036;SDS011;62488;-37.670;-63.532;2023-04-06T03:34:24;9.25;;;2.20;;
44036;SDS011;62488;-37.670;-63.532;2023-04-06T03:36:51;5.10;;;2.10;;
44036;SDS011;62488;-37.670;-63.532;2023-04-06T03:39:18;8.32;;;2.33;;
44036;SDS011;62488;-37.670;-63.532;2023-04-06T03:41:45;13.35;;;2.30;;
44036;SDS011;62488;-37.670;-63.532;2023-04-06T03:44:12;6.78;;;2.10;;
44036;SDS011;62488;-37.670;-63.532;2023-04-06T03:46:40;6.05;;;1.75;;
44036;SDS011;62488;-37.670;-63.532;2023-04-06T03:49:07;9.15;;;2.03;;
44036;SDS011;62488;-37.670;-63.532;2023-04-06T03:51:34;8.80;;;2.53;;
44036;SDS011;62488;-37.670;-63.532;2023-04-06T03:54:01;5.07;;;2.15;;
44036;SDS011;62488;-37.670;-63.532;2023-04-06T03:56:28;12.23;;;2.63;;
44036;SDS011;62488;-37.670;-63.532;2023-04-06T03:58:55;11.85;;;2.78;;
44036;SDS011;62488;-37.670;-63.532;2023-04-06T04:01:22;16.83;;;2.35;;
44036;SDS011;62488;-37.670;-63.532;2023-04-06T04:03:49;5.97;;;1.90;;
44036;SDS011;62488;-37.670;-63.532;2023-04-06T04:06:16;5.15;;;1.88;;
44036;SDS011;62488;-37.670;-63.532;2023-04-06T04:08:43;7.32;;;2.15;;
44036;SDS011;62488;-37.670;-63.532;2023-04-06T04:11:11;14.90;;;2.20;;
44036;SDS011;62488;-37.670;-63.532;2023-04-06T04:13:38;14.85;;;2.05;;
44036;SDS011;62488;-37.670;-63.532;2023-04-06T04:16:05;9.43;;;2.50;;
44036;SDS011;62488;-37.670;-63.532;2023-04-06T04:18:32;11.82;;;2.75;;
44036;SDS011;62488;-37.670;-63.532;2023-04-06T04:21:02;11.27;;;2.60;;
44036;SDS011;62488;-37.670;-63.532;2023-04-06T04:23:29;8.15;;;2.50;;
44036;SDS011;62488;-37.670;-63.532;2023-04-06T04:25:56;6.72;;;2.83;;
44036;SDS011;62488;-37.670;-63.532;2023-04-06T04:28:23;11.13;;;2.20;;
44036;SDS011;62488;-37.670;-63.532;2023-04-06T04:30:50;11.27;;;2.47;;
44036;SDS011;62488;-37.670;-63.532;2023-04-06T04:33:17;9.30;;;2.30;;
44036;SDS011;62488;-37.670;-63.532;2023-04-06T04:35:44;11.02;;;2.80;;
44036;SDS011;62488;-37.670;-63.532;2023-04-06T04:38:11;12.10;;;1.63;;
44036;SDS011;62488;-37.670;-63.532;2023-04-06T04:40:38;6.45;;;1.70;;
44036;SDS011;62488;-37.670;-63.532;2023-04-06T04:43:05;8.43;;;2.58;;
44036;SDS011;62488;-37.670;-63.532;2023-04-06T04:45:32;7.20;;;1.83;;
44036;SDS011;62488;-37.670;-63.532;2023-04-06T04:47:59;5.93;;;1.88;;
44036;SDS011;62488;-37.670;-63.532;2023-04-06T04:50:26;9.25;;;2.30;;
44036;SDS011;62488;-37.670;-63.532;2023-04-06T04:52:53;5.88;;;1.75;;
44036;SDS011;62488;-37.670;-63.532;2023-04-06T04:55:20;7.07;;;1.80;;
44036;SDS011;62488;-37.670;-63.532;2023-04-06T04:57:47;11.07;;;2.55;;
44036;SDS011;62488;-37.670;-63.532;2023-04-06T05:00:16;10.10;;;2.28;;
44036;SDS011;62488;-37.670;-63.532;2023-04-06T05:02:43;6.63;;;1.95;;
44036;SDS011;62488;-37.670;-63.532;2023-04-06T05:05:10;4.07;;;1.60;;
44036;SDS011;62488;-37.670;-63.532;2023-04-06T05:07:37;11.02;;;3.20;;
44036;SDS011;62488;-37.670;-63.532;2023-04-06T05:10:05;5.05;;;1.98;;
44036;SDS011;62488;-37.670;-63.532;2023-04-06T05:12:32;7.40;;;1.45;;
44036;SDS011;62488;-37.670;-63.532;2023-04-06T05:14:59;9.20;;;1.83;;
44036;SDS011;62488;-37.670;-63.532;2023-04-06T05:17:26;7.85;;;1.70;;
44036;SDS011;62488;-37.670;-63.532;2023-04-06T05:19:53;12.75;;;2.15;;
44036;SDS011;62488;-37.670;-63.532;2023-04-06T05:22:21;5.35;;;2.03;;
44036;SDS011;62488;-37.670;-63.532;2023-04-06T05:24:47;6.68;;;2.00;;
44036;SDS011;62488;-37.670;-63.532;2023-04-06T05:27:14;5.93;;;2.25;;
44036;SDS011;62488;-37.670;-63.532;2023-04-06T05:29:42;6.97;;;1.52;;
44036;SDS011;62488;-37.670;-63.532;2023-04-06T05:32:09;6.35;;;1.80;;
44036;SDS011;62488;-37.670;-63.532;2023-04-06T05:34:36;5.20;;;1.60;;
44036;SDS011;62488;-37.670;-63.532;2023-04-06T05:37:03;10.90;;;2.03;;
44036;SDS011;62488;-37.670;-63.532;2023-04-06T05:39:30;5.43;;;2.28;;
44036;SDS011;62488;-37.670;-63.532;2023-04-06T05:41:57;11.15;;;2.22;;
44036;SDS011;62488;-37.670;-63.532;2023-04-06T05:44:27;3.75;;;1.50;;
44036;SDS011;62488;-37.670;-63.532;2023-04-06T05:46:54;6.88;;;1.73;;
44036;SDS011;62488;-37.670;-63.532;2023-04-06T05:49:21;5.63;;;1.55;;
44036;SDS011;62488;-37.670;-63.532;2023-04-06T05:51:48;8.77;;;2.05;;
44036;SDS011;62488;-37.670;-63.532;2023-04-06T05:54:15;8.93;;;2.55;;
44036;SDS011;62488;-37.670;-63.532;2023-04-06T05:56:42;6.43;;;1.83;;
44036;SDS011;62488;-37.670;-63.532;2023-04-06T05:59:09;6.03;;;2.22;;
44036;SDS011;62488;-37.670;-63.532;2023-04-06T06:01:36;3.00;;;1.65;;
44036;SDS011;62488;-37.670;-63.532;2023-04-06T06:04:03;9.05;;;2.10;;
44036;SDS011;62488;-37.670;-63.532;2023-04-06T06:06:30;3.40;;;1.50;;
44036;SDS011;62488;-37.670;-63.532;2023-04-06T06:08:57;5.35;;;1.55;;
44036;SDS011;62488;-37.670;-63.532;2023-04-06T06:11:26;5.88;;;1.70;;
44036;SDS011;62488;-37.670;-63.532;2023-04-06T06:13:53;5.10;;;1.70;;
44036;SDS011;62488;-37.670;-63.532;2023-04-06T06:16:20;6.10;;;1.65;;
44036;SDS011;62488;-37.670;-63.532;2023-04-06T06:18:47;8.82;;;1.92;;
44036;SDS011;62488;-37.670;-63.532;2023-04-06T06:21:14;6.28;;;1.67;;
44036;SDS011;62488;-37.670;-63.532;2023-04-06T06:23:42;6.07;;;1.98;;
44036;SDS011;62488;-37.670;-63.532;2023-04-06T06:26:09;9.90;;;1.88;;
44036;SDS011;62488;-37.670;-63.532;2023-04-06T06:28:37;7.88;;;1.98;;
44036;SDS011;62488;-37.670;-63.532;2023-04-06T06:31:03;2.72;;;1.55;;
44036;SDS011;62488;-37.670;-63.532;2023-04-06T06:33:30;3.78;;;1.63;;
44036;SDS011;62488;-37.670;-63.532;2023-04-06T06:35:57;8.82;;;2.08;;
44036;SDS011;62488;-37.670;-63.532;2023-04-06T06:38:25;4.63;;;1.85;;
44036;SDS011;62488;-37.670;-63.532;2023-04-06T06:40:52;7.25;;;1.98;;
44036;SDS011;62488;-37.670;-63.532;2023-04-06T06:43:19;5.22;;;1.55;;
44036;SDS011;62488;-37.670;-63.532;2023-04-06T06:45:46;8.07;;;1.50;;
44036;SDS011;62488;-37.670;-63.532;2023-04-06T06:48:13;4.28;;;1.48;;
44036;SDS011;62488;-37.670;-63.532;2023-04-06T06:50:40;6.28;;;1.65;;
44036;SDS011;62488;-37.670;-63.532;2023-04-06T06:53:09;7.30;;;2.30;;
44036;SDS011;62488;-37.670;-63.532;2023-04-06T06:55:37;6.60;;;2.40;;
44036;SDS011;62488;-37.670;-63.532;2023-04-06T06:58:04;5.65;;;1.50;;
44036;SDS011;62488;-37.670;-63.532;2023-04-06T07:00:31;5.32;;;1.40;;
44036;SDS011;62488;-37.670;-63.532;2023-04-06T07:02:58;6.47;;;2.28;;
44036;SDS011;62488;-37.670;-63.532;2023-04-06T07:05:26;7.72;;;1.88;;
44036;SDS011;62488;-37.670;-63.532;2023-04-06T07:07:53;4.35;;;2.08;;
44036;SDS011;62488;-37.670;-63.532;2023-04-06T07:10:21;7.50;;;1.67;;
44036;SDS011;62488;-37.670;-63.532;2023-04-06T07:12:49;5.40;;;1.70;;
44036;SDS011;62488;-37.670;-63.532;2023-04-06T07:15:16;7.82;;;1.50;;
44036;SDS011;62488;-37.670;-63.532;2023-04-06T07:17:43;6.15;;;1.42;;
44036;SDS011;62488;-37.670;-63.532;2023-04-06T07:20:10;5.05;;;1.77;;
44036;SDS011;62488;-37.670;-63.532;2023-04-06T07:22:38;7.68;;;1.95;;
44036;SDS011;62488;-37.670;-63.532;2023-04-06T07:25:06;1.83;;;1.23;;
44036;SDS011;62488;-37.670;-63.532;2023-04-06T07:27:34;10.68;;;2.00;;
44036;SDS011;62488;-37.670;-63.532;2023-04-06T07:30:01;7.32;;;1.90;;
44036;SDS011;62488;-37.670;-63.532;2023-04-06T07:32:28;3.33;;;1.35;;
44036;SDS011;62488;-37.670;-63.532;2023-04-06T07:34:56;1.90;;;1.10;;
44036;SDS011;62488;-37.670;-63.532;2023-04-06T07:37:23;3.10;;;1.10;;
44036;SDS011;62488;-37.670;-63.532;2023-04-06T07:39:50;5.75;;;1.20;;
44036;SDS011;62488;-37.670;-63.532;2023-04-06T07:42:17;5.28;;;1.58;;
44036;SDS011;62488;-37.670;-63.532;2023-04-06T07:44:44;7.80;;;2.00;;
44036;SDS011;62488;-37.670;-63.532;2023-04-06T07:47:11;5.00;;;1.40;;
44036;SDS011;62488;-37.670;-63.532;2023-04-06T07:49:38;2.60;;;1.52;;
44036;SDS011;62488;-37.670;-63.532;2023-04-06T07:52:05;6.55;;;1.60;;
44036;SDS011;62488;-37.670;-63.532;2023-04-06T07:54:32;7.38;;;1.88;;
44036;SDS011;62488;-37.670;-63.532;2023-04-06T07:56:59;8.02;;;1.67;;
44036;SDS011;62488;-37.670;-63.532;2023-04-06T07:59:26;4.97;;;1.42;;
44036;SDS011;62488;-37.670;-63.532;2023-04-06T08:01:53;7.07;;;1.48;;
44036;SDS011;62488;-37.670;-63.532;2023-04-06T08:04:20;4.25;;;1.60;;
44036;SDS011;62488;-37.670;-63.532;2023-04-06T08:06:47;4.30;;;1.42;;
44036;SDS011;62488;-37.670;-63.532;2023-04-06T08:09:14;7.40;;;1.45;;
44036;SDS011;62488;-37.670;-63.532;2023-04-06T08:11:41;3.92;;;1.15;;
44036;SDS011;62488;-37.670;-63.532;2023-04-06T08:14:09;6.03;;;1.85;;
44036;SDS011;62488;-37.670;-63.532;2023-04-06T08:16:36;6.97;;;1.75;;
44036;SDS011;62488;-37.670;-63.532;2023-04-06T08:19:03;5.15;;;1.40;;
44036;SDS011;62488;-37.670;-63.532;2023-04-06T08:21:32;4.80;;;1.85;;
44036;SDS011;62488;-37.670;-63.532;2023-04-06T08:24:00;6.70;;;2.33;;
44036;SDS011;62488;-37.670;-63.532;2023-04-06T08:26:27;4.70;;;1.33;;
44036;SDS011;62488;-37.670;-63.532;2023-04-06T08:28:54;3.63;;;1.77;;
44036;SDS011;62488;-37.670;-63.532;2023-04-06T08:31:21;2.17;;;1.35;;
44036;SDS011;62488;-37.670;-63.532;2023-04-06T08:33:48;5.65;;;1.88;;
44036;SDS011;62488;-37.670;-63.532;2023-04-06T08:36:15;10.13;;;1.73;;
44036;SDS011;62488;-37.670;-63.532;2023-04-06T08:38:45;8.82;;;1.85;;
44036;SDS011;62488;-37.670;-63.532;2023-04-06T08:41:14;3.67;;;1.85;;
44036;SDS011;62488;-37.670;-63.532;2023-04-06T08:43:49;3.38;;;1.67;;
44036;SDS011;62488;-37.670;-63.532;2023-04-06T08:46:23;5.35;;;1.50;;
44036;SDS011;62488;-37.670;-63.532;2023-04-06T08:48:57;2.50;;;1.23;;
44036;SDS011;62488;-37.670;-63.532;2023-04-06T08:51:25;3.05;;;1.38;;
44036;SDS011;62488;-37.670;-63.532;2023-04-06T08:53:53;3.03;;;1.60;;
44036;SDS011;62488;-37.670;-63.532;2023-04-06T08:56:24;4.85;;;1.30;;
44036;SDS011;62488;-37.670;-63.532;2023-04-06T08:58:53;4.68;;;1.80;;
44036;SDS011;62488;-37.670;-63.532;2023-04-06T09:01:21;5.68;;;1.85;;
44036;SDS011;62488;-37.670;-63.532;2023-04-06T09:03:51;7.00;;;1.85;;
44036;SDS011;62488;-37.670;-63.532;2023-04-06T09:06:25;5.03;;;1.48;;
44036;SDS011;62488;-37.670;-63.532;2023-04-06T09:08:53;4.10;;;2.00;;
44036;SDS011;62488;-37.670;-63.532;2023-04-06T09:11:23;6.30;;;1.65;;
44036;SDS011;62488;-37.670;-63.532;2023-04-06T09:13:51;7.25;;;1.30;;
44036;SDS011;62488;-37.670;-63.532;2023-04-06T09:16:20;5.70;;;1.50;;
44036;SDS011;62488;-37.670;-63.532;2023-04-06T09:18:48;5.97;;;1.98;;
44036;SDS011;62488;-37.670;-63.532;2023-04-06T09:21:17;12.43;;;1.88;;
44036;SDS011;62488;-37.670;-63.532;2023-04-06T09:23:46;5.80;;;1.80;;
44036;SDS011;62488;-37.670;-63.532;2023-04-06T09:26:15;7.18;;;2.15;;
44036;SDS011;62488;-37.670;-63.532;2023-04-06T09:29:04;7.85;;;1.58;;
44036;SDS011;62488;-37.670;-63.532;2023-04-06T09:31:31;4.47;;;1.70;;
44036;SDS011;62488;-37.670;-63.532;2023-04-06T09:33:58;5.70;;;1.60;;
44036;SDS011;62488;-37.670;-63.532;2023-04-06T09:36:33;4.72;;;1.80;;
44036;SDS011;62488;-37.670;-63.532;2023-04-06T09:39:05;4.53;;;1.80;;
44036;SDS011;62488;-37.670;-63.532;2023-04-06T09:41:33;3.50;;;1.58;;
44036;SDS011;62488;-37.670;-63.532;2023-04-06T09:44:02;6.40;;;1.50;;
44036;SDS011;62488;-37.670;-63.532;2023-04-06T09:46:39;9.98;;;1.95;;
44036;SDS011;62488;-37.670;-63.532;2023-04-06T09:49:07;6.93;;;1.40;;
44036;SDS011;62488;-37.670;-63.532;2023-04-06T09:51:40;7.22;;;1.50;;
44036;SDS011;62488;-37.670;-63.532;2023-04-06T09:54:11;7.43;;;1.80;;
44036;SDS011;62488;-37.670;-63.532;2023-04-06T09:56:45;3.40;;;1.67;;
44036;SDS011;62488;-37.670;-63.532;2023-04-06T09:59:14;4.47;;;1.73;;
44036;SDS011;62488;-37.670;-63.532;2023-04-06T10:02:08;6.97;;;1.80;;
44036;SDS011;62488;-37.670;-63.532;2023-04-06T10:05:37;10.73;;;2.03;;
44036;SDS011;62488;-37.670;-63.532;2023-04-06T10:07:53;2.58;;;1.08;;
44036;SDS011;62488;-37.670;-63.532;2023-04-06T10:10:23;4.13;;;1.85;;
44036;SDS011;62488;-37.670;-63.532;2023-04-06T10:12:50;3.03;;;1.60;;
44036;SDS011;62488;-37.670;-63.532;2023-04-06T10:15:17;6.35;;;1.90;;
44036;SDS011;62488;-37.670;-63.532;2023-04-06T10:17:44;8.20;;;2.10;;
44036;SDS011;62488;-37.670;-63.532;2023-04-06T10:20:14;4.43;;;1.90;;
44036;SDS011;62488;-37.670;-63.532;2023-04-06T10:25:29;5.13;;;1.90;;
44036;SDS011;62488;-37.670;-63.532;2023-04-06T10:28:06;4.25;;;2.03;;
44036;SDS011;62488;-37.670;-63.532;2023-04-06T10:30:36;5.53;;;1.60;;
44036;SDS011;62488;-37.670;-63.532;2023-04-06T10:35:42;8.70;;;1.63;;
44036;SDS011;62488;-37.670;-63.532;2023-04-06T10:38:10;7.78;;;1.83;;
44036;SDS011;62488;-37.670;-63.532;2023-04-06T10:40:40;4.90;;;1.77;;
44036;SDS011;62488;-37.670;-63.532;2023-04-06T10:43:20;5.22;;;2.17;;
44036;SDS011;62488;-37.670;-63.532;2023-04-06T10:45:57;5.03;;;1.67;;
44036;SDS011;62488;-37.670;-63.532;2023-04-06T10:48:36;6.60;;;1.65;;
44036;SDS011;62488;-37.670;-63.532;2023-04-06T10:51:07;11.55;;;2.47;;
44036;SDS011;62488;-37.670;-63.532;2023-04-06T10:53:39;6.22;;;1.80;;
44036;SDS011;62488;-37.670;-63.532;2023-04-06T10:56:17;10.93;;;1.90;;
44036;SDS011;62488;-37.670;-63.532;2023-04-06T10:58:48;4.63;;;1.65;;
44036;SDS011;62488;-37.670;-63.532;2023-04-06T11:03:47;4.05;;;1.70;;
44036;SDS011;62488;-37.670;-63.532;2023-04-06T11:06:22;6.40;;;1.77;;
44036;SDS011;62488;-37.670;-63.532;2023-04-06T11:08:50;18.63;;;2.75;;
44036;SDS011;62488;-37.670;-63.532;2023-04-06T11:11:19;5.90;;;1.80;;
44036;SDS011;62488;-37.670;-63.532;2023-04-06T11:13:49;4.10;;;1.73;;
44036;SDS011;62488;-37.670;-63.532;2023-04-06T11:16:21;6.32;;;1.80;;
44036;SDS011;62488;-37.670;-63.532;2023-04-06T11:19:02;5.47;;;2.15;;
44036;SDS011;62488;-37.670;-63.532;2023-04-06T11:21:39;5.28;;;2.20;;
44036;SDS011;62488;-37.670;-63.532;2023-04-06T11:24:13;8.43;;;2.08;;
44036;SDS011;62488;-37.670;-63.532;2023-04-06T11:26:49;5.47;;;1.70;;
44036;SDS011;62488;-37.670;-63.532;2023-04-06T11:29:18;10.83;;;2.20;;
44036;SDS011;62488;-37.670;-63.532;2023-04-06T11:31:49;7.07;;;2.15;;
44036;SDS011;62488;-37.670;-63.532;2023-04-06T11:34:24;7.15;;;1.75;;
44036;SDS011;62488;-37.670;-63.532;2023-04-06T11:36:56;12.20;;;2.00;;
44036;SDS011;62488;-37.670;-63.532;2023-04-06T11:39:26;7.00;;;1.88;;
44036;SDS011;62488;-37.670;-63.532;2023-04-06T11:42:00;2.75;;;1.20;;
44036;SDS011;62488;-37.670;-63.532;2023-04-06T11:44:35;7.88;;;1.90;;
44036;SDS011;62488;-37.670;-63.532;2023-04-06T11:47:07;4.97;;;2.30;;
44036;SDS011;62488;-37.670;-63.532;2023-04-06T11:49:39;4.50;;;1.55;;
44036;SDS011;62488;-37.670;-63.532;2023-04-06T11:52:20;4.47;;;1.50;;
44036;SDS011;62488;-37.670;-63.532;2023-04-06T11:54:48;10.70;;;2.15;;
44036;SDS011;62488;-37.670;-63.532;2023-04-06T11:57:16;13.77;;;3.13;;
44036;SDS011;62488;-37.670;-63.532;2023-04-06T11:59:45;34.05;;;5.47;;
44036;SDS011;62488;-37.670;-63.532;2023-04-06T12:02:12;20.75;;;5.13;;
44036;SDS011;62488;-37.670;-63.532;2023-04-06T12:04:39;15.13;;;3.53;;
44036;SDS011;62488;-37.670;-63.532;2023-04-06T12:07:06;10.52;;;3.10;;
44036;SDS011;62488;-37.670;-63.532;2023-04-06T12:09:33;16.45;;;3.70;;
44036;SDS011;62488;-37.670;-63.532;2023-04-06T12:12:01;15.63;;;4.75;;
44036;SDS011;62488;-37.670;-63.532;2023-04-06T12:14:28;10.52;;;4.97;;
44036;SDS011;62488;-37.670;-63.532;2023-04-06T12:16:58;12.95;;;4.97;;
44036;SDS011;62488;-37.670;-63.532;2023-04-06T12:19:25;16.33;;;5.40;;
44036;SDS011;62488;-37.670;-63.532;2023-04-06T12:21:53;11.40;;;4.22;;
44036;SDS011;62488;-37.670;-63.532;2023-04-06T12:24:20;13.05;;;5.30;;
44036;SDS011;62488;-37.670;-63.532;2023-04-06T12:26:47;24.15;;;8.15;;
44036;SDS011;62488;-37.670;-63.532;2023-04-06T12:29:15;11.55;;;5.75;;
44036;SDS011;62488;-37.670;-63.532;2023-04-06T12:31:42;26.58;;;6.32;;
44036;SDS011;62488;-37.670;-63.532;2023-04-06T12:34:10;22.67;;;7.80;;
44036;SDS011;62488;-37.670;-63.532;2023-04-06T12:36:37;18.98;;;7.30;;
44036;SDS011;62488;-37.670;-63.532;2023-04-06T12:39:05;26.95;;;7.95;;
44036;SDS011;62488;-37.670;-63.532;2023-04-06T12:41:32;17.17;;;8.55;;
44036;SDS011;62488;-37.670;-63.532;2023-04-06T12:43:59;13.30;;;7.57;;
44036;SDS011;62488;-37.670;-63.532;2023-04-06T12:46:27;22.25;;;15.85;;
44036;SDS011;62488;-37.670;-63.532;2023-04-06T12:48:58;25.90;;;21.45;;
44036;SDS011;62488;-37.670;-63.532;2023-04-06T12:51:29;28.75;;;20.17;;
44036;SDS011;62488;-37.670;-63.532;2023-04-06T12:53:59;15.35;;;8.88;;
44036;SDS011;62488;-37.670;-63.532;2023-04-06T12:56:26;17.00;;;6.35;;
44036;SDS011;62488;-37.670;-63.532;2023-04-06T12:58:53;9.32;;;5.28;;
44036;SDS011;62488;-37.670;-63.532;2023-04-06T13:01:21;17.48;;;6.63;;
44036;SDS011;62488;-37.670;-63.532;2023-04-06T13:03:48;16.77;;;5.82;;
44036;SDS011;62488;-37.670;-63.532;2023-04-06T13:06:15;14.65;;;6.65;;
44036;SDS011;62488;-37.670;-63.532;2023-04-06T13:08:42;17.30;;;6.72;;
44036;SDS011;62488;-37.670;-63.532;2023-04-06T13:11:09;11.70;;;5.13;;
44036;SDS011;62488;-37.670;-63.532;2023-04-06T13:13:37;10.70;;;4.47;;
44036;SDS011;62488;-37.670;-63.532;2023-04-06T13:16:05;12.23;;;5.20;;
44036;SDS011;62488;-37.670;-63.532;2023-04-06T13:18:34;15.88;;;5.88;;
44036;SDS011;62488;-37.670;-63.532;2023-04-06T13:21:04;8.38;;;6.63;;
44036;SDS011;62488;-37.670;-63.532;2023-04-06T13:23:31;16.65;;;7.70;;
44036;SDS011;62488;-37.670;-63.532;2023-04-06T13:26:00;9.52;;;5.95;;
44036;SDS011;62488;-37.670;-63.532;2023-04-06T13:28:29;9.52;;;6.03;;
44036;SDS011;62488;-37.670;-63.532;2023-04-06T13:30:57;9.65;;;5.97;;
44036;SDS011;62488;-37.670;-63.532;2023-04-06T13:33:26;13.48;;;6.93;;
44036;SDS011;62488;-37.670;-63.532;2023-04-06T13:35:53;28.85;;;25.90;;
44036;SDS011;62488;-37.670;-63.532;2023-04-06T13:38:21;74.35;;;68.03;;
44036;SDS011;62488;-37.670;-63.532;2023-04-06T13:40:49;58.50;;;53.25;;
44036;SDS011;62488;-37.670;-63.532;2023-04-06T13:43:16;32.63;;;27.00;;
44036;SDS011;62488;-37.670;-63.532;2023-04-06T13:45:49;20.93;;;19.17;;
44036;SDS011;62488;-37.670;-63.532;2023-04-06T13:48:17;6.72;;;3.35;;
44036;SDS011;62488;-37.670;-63.532;2023-04-06T13:50:44;7.05;;;3.35;;
44036;SDS011;62488;-37.670;-63.532;2023-04-06T13:53:11;9.88;;;3.80;;
44036;SDS011;62488;-37.670;-63.532;2023-04-06T13:55:38;26.20;;;23.63;;
44036;SDS011;62488;-37.670;-63.532;2023-04-06T13:58:06;21.80;;;15.77;;
44036;SDS011;62488;-37.670;-63.532;2023-04-06T14:00:33;93.70;;;51.03;;
44036;SDS011;62488;-37.670;-63.532;2023-04-06T14:03:01;5.13;;;2.50;;
44036;SDS011;62488;-37.670;-63.532;2023-04-06T14:05:31;4.43;;;1.83;;
44036;SDS011;62488;-37.670;-63.532;2023-04-06T14:07:58;8.88;;;3.10;;
44036;SDS011;62488;-37.670;-63.532;2023-04-06T14:10:25;11.18;;;3.25;;
44036;SDS011;62488;-37.670;-63.532;2023-04-06T14:12:53;6.78;;;3.00;;
44036;SDS011;62488;-37.670;-63.532;2023-04-06T14:15:20;11.20;;;5.03;;
44036;SDS011;62488;-37.670;-63.532;2023-04-06T14:17:48;10.77;;;4.57;;